Terminal Aerodrome Forecast
Issued by NWS Duluth, MN

Home | Current Version | Previous Version | Text Only | Print | Product List | Glossary On
Versions: 1 2 3 4 5 6 7 8 9 10 11 12 13 14 15 16
000
FTUS43 KDLH 241500 AAA
TAFINL
TAF AMD
KINL 241541Z 2416/2512 32014G23KT P6SM VCSH SCT022 BKN035
      TEMPO 2416/2418 33017G26KT 1 1/2SM -SN BKN022
     FM241800 32015G25KT P6SM VCSH BKN035
     FM250000 32009KT P6SM SCT035
     FM250600 33005KT P6SM BKN120=

USA.gov is the U.S. government's official web portal to all federal, state and local government web resources and services.